createdAt,value
2022-08-04T00:01:43.672Z,81.00
2022-08-04T00:04:49.231Z,81.30
2022-08-04T00:07:53.673Z,81.60
2022-08-04T00:10:42.434Z,81.40
2022-08-04T00:13:31.541Z,81.40
2022-08-04T00:16:18.244Z,81.50
2022-08-04T00:19:37.281Z,81.60
2022-08-04T00:22:26.708Z,81.80
2022-08-04T00:25:12.636Z,82.00
2022-08-04T00:28:01.995Z,82.70
2022-08-04T00:30:49.535Z,82.10
2022-08-04T00:33:35.372Z,82.20
2022-08-04T00:36:24.902Z,82.10
2022-08-04T00:39:14.025Z,82.20
2022-08-04T00:42:34.625Z,82.50
2022-08-04T00:46:15.279Z,82.50
2022-08-04T00:49:46.931Z,82.70
2022-08-04T00:52:47.834Z,82.60
2022-08-04T00:55:53.852Z,82.80
2022-08-04T00:58:51.098Z,82.80
2022-08-04T01:01:48.784Z,82.90
2022-08-04T01:05:02.627Z,83.10
2022-08-04T01:08:25.931Z,83.10
2022-08-04T01:11:27.708Z,83.10
2022-08-04T01:14:44.275Z,83.40
2022-08-04T01:17:49.904Z,83.20
2022-08-04T01:20:52.405Z,83.60
2022-08-04T01:23:55.236Z,83.70
2022-08-04T01:27:03.801Z,83.60
2022-08-04T01:29:55.687Z,83.70
2022-08-04T01:33:04.426Z,83.70
2022-08-04T01:36:01.215Z,83.70
2022-08-04T01:38:47.324Z,83.80
2022-08-04T01:41:33.143Z,83.80
2022-08-04T01:44:19.137Z,84.10
2022-08-04T01:47:05.034Z,84.10
2022-08-04T01:49:51.714Z,84.20
2022-08-04T01:52:39.273Z,84.10
2022-08-04T01:55:54.343Z,84.20
2022-08-04T01:58:35.009Z,84.20
2022-08-04T02:01:20.723Z,84.00
2022-08-04T02:04:18.686Z,84.00
2022-08-04T02:07:35.255Z,84.00
2022-08-04T02:10:42.286Z,84.20
2022-08-04T02:13:39.287Z,84.20
2022-08-04T02:16:46.248Z,84.10
2022-08-04T02:20:23.187Z,84.40
2022-08-04T02:23:14.053Z,84.50
2022-08-04T02:26:03.482Z,84.70
2022-08-04T02:29:11.549Z,84.50
2022-08-04T02:32:03.276Z,85.50
2022-08-04T02:34:54.230Z,84.70
2022-08-04T02:37:47.513Z,84.90
2022-08-04T02:40:36.544Z,85.10
2022-08-04T02:43:52.105Z,85.10
2022-08-04T02:46:33.655Z,85.40
2022-08-04T02:49:20.271Z,85.70
2022-08-04T02:52:09.905Z,85.80
2022-08-04T02:54:58.244Z,85.90
2022-08-04T02:57:47.472Z,86.10
2022-08-04T03:00:33.595Z,86.30
2022-08-04T03:03:45.330Z,86.30
2022-08-04T03:06:54.414Z,86.20
2022-08-04T03:10:10.341Z,86.50
2022-08-04T03:13:03.005Z,86.60
2022-08-04T03:16:33.470Z,86.60
2022-08-04T03:19:42.210Z,86.70
2022-08-04T03:23:14.738Z,86.70
2022-08-04T03:26:27.415Z,86.60
2022-08-04T03:29:40.877Z,87.10
2022-08-04T03:32:42.152Z,87.10
2022-08-04T03:35:45.894Z,87.20
2022-08-04T03:39:21.728Z,87.20
2022-08-04T03:42:38.465Z,87.60
2022-08-04T03:46:09.776Z,87.70
2022-08-04T03:49:30.911Z,88.60
2022-08-04T03:53:07.581Z,87.70
2022-08-04T03:56:26.684Z,87.80
2022-08-04T03:59:48.015Z,88.10
2022-08-04T04:03:06.254Z,88.40
2022-08-04T04:06:00.344Z,88.30
2022-08-04T04:09:16.127Z,88.50
2022-08-04T04:12:21.519Z,88.70
2022-08-04T04:15:10.052Z,88.80
2022-08-04T04:18:08.345Z,88.80
2022-08-04T04:21:17.400Z,89.00
2022-08-04T04:24:36.249Z,89.20
2022-08-04T04:27:22.019Z,89.50
2022-08-04T04:30:19.180Z,89.70
2022-08-04T04:33:37.583Z,89.70
2022-08-04T04:36:39.744Z,89.50
2022-08-04T04:39:44.119Z,89.60
2022-08-04T04:42:37.706Z,89.60
2022-08-04T04:45:33.679Z,89.70
2022-08-04T04:48:28.411Z,89.70
2022-08-04T04:51:17.099Z,89.90
2022-08-04T04:54:14.419Z,90.10
2022-08-04T04:57:54.448Z,90.10
2022-08-04T05:00:49.255Z,90.20
2022-08-04T05:03:56.697Z,90.40
2022-08-04T05:07:09.304Z,90.40
2022-08-04T05:10:22.255Z,90.40
2022-08-04T05:14:37.359Z,90.50
2022-08-04T05:16:46.893Z,90.50
2022-08-04T05:20:02.796Z,90.50
2022-08-04T05:22:51.787Z,90.70
2022-08-04T05:26:09.189Z,91.10
2022-08-04T05:28:58.264Z,91.60
2022-08-04T05:31:51.543Z,91.80
2022-08-04T05:34:45.208Z,92.00
2022-08-04T05:37:34.271Z,91.30
2022-08-04T05:40:20.366Z,90.80
2022-08-04T05:43:06.980Z,90.50
2022-08-04T05:45:53.310Z,90.50
2022-08-04T05:48:40.831Z,90.80
2022-08-04T05:51:27.020Z,91.20
2022-08-04T05:54:14.053Z,90.40
2022-08-04T05:57:00.471Z,88.20
2022-08-04T05:59:49.711Z,85.40
2022-08-04T06:02:37.439Z,83.00
2022-08-04T06:05:24.348Z,80.70
2022-08-04T06:08:13.280Z,77.50
2022-08-04T06:11:04.822Z,75.10
2022-08-04T06:13:57.595Z,72.90
2022-08-04T06:16:51.157Z,70.00
2022-08-04T06:20:03.962Z,67.90
2022-08-04T06:22:49.459Z,66.00
2022-08-04T06:25:41.600Z,64.80
2022-08-04T06:28:29.664Z,63.70
2022-08-04T06:32:31.616Z,63.60
2022-08-04T06:34:46.639Z,63.30
2022-08-04T06:37:42.032Z,63.10
2022-08-04T06:40:33.333Z,63.00
2022-08-04T06:43:20.875Z,63.20
2022-08-04T06:46:07.491Z,63.20
2022-08-04T06:48:54.399Z,62.80
2022-08-04T06:51:48.717Z,63.30
2022-08-04T06:54:35.559Z,63.10
2022-08-04T06:57:24.890Z,63.00
2022-08-04T07:00:16.706Z,63.50
2022-08-04T07:03:03.252Z,63.70
2022-08-04T07:05:49.462Z,63.90
2022-08-04T07:08:35.831Z,63.80
2022-08-04T07:11:21.669Z,63.90
2022-08-04T07:14:07.372Z,63.70
2022-08-04T07:16:54.320Z,64.30
2022-08-04T07:19:39.793Z,64.10
2022-08-04T07:22:26.888Z,64.00
2022-08-04T07:25:13.198Z,64.00
2022-08-04T07:27:58.656Z,63.70
2022-08-04T07:30:45.587Z,63.30
2022-08-04T07:33:31.764Z,63.60
2022-08-04T07:36:17.144Z,64.00
2022-08-04T07:39:02.988Z,63.70
2022-08-04T07:41:49.136Z,63.70
2022-08-04T07:44:38.313Z,63.60
2022-08-04T07:47:25.553Z,63.50
2022-08-04T07:50:12.735Z,63.00
2022-08-04T07:53:15.621Z,63.80
2022-08-04T07:56:04.231Z,62.60
2022-08-04T07:58:50.618Z,62.80
2022-08-04T08:01:37.574Z,63.10
2022-08-04T08:04:23.338Z,62.70
2022-08-04T08:07:09.128Z,62.10
2022-08-04T08:09:54.444Z,61.70
2022-08-04T08:12:51.172Z,61.60
2022-08-04T08:15:39.215Z,61.70
2022-08-04T08:18:25.160Z,61.50
2022-08-04T08:21:10.868Z,61.10
2022-08-04T08:23:57.407Z,60.90
2022-08-04T08:26:45.513Z,61.10
2022-08-04T08:29:34.117Z,60.50
2022-08-04T08:32:20.266Z,60.20
2022-08-04T08:35:07.021Z,59.70
2022-08-04T08:37:58.508Z,59.20
2022-08-04T08:40:46.891Z,58.60
2022-08-04T08:44:03.925Z,58.50
2022-08-04T08:47:18.037Z,58.00
2022-08-04T08:50:04.660Z,57.60
2022-08-04T08:53:15.228Z,57.50
2022-08-04T08:56:33.132Z,57.50
2022-08-04T09:00:00.643Z,57.40
2022-08-04T09:03:24.373Z,57.50
2022-08-04T09:06:19.184Z,57.40
2022-08-04T09:09:19.884Z,57.10
2022-08-04T09:12:11.452Z,56.40
2022-08-04T09:15:12.150Z,56.40
2022-08-04T09:18:07.406Z,56.20
2022-08-04T09:21:17.787Z,56.00
2022-08-04T09:24:48.109Z,55.50
2022-08-04T09:27:55.237Z,55.80
2022-08-04T09:30:58.030Z,55.80
2022-08-04T09:34:23.930Z,55.70
2022-08-04T09:37:19.867Z,55.40
2022-08-04T09:40:31.425Z,55.10
2022-08-04T09:44:50.228Z,55.60
2022-08-04T09:47:25.648Z,54.70
2022-08-04T09:50:49.972Z,54.50
2022-08-04T09:53:54.739Z,54.40
2022-08-04T09:56:48.983Z,54.60
2022-08-04T10:00:09.296Z,54.20
2022-08-04T10:03:02.680Z,54.10
2022-08-04T10:06:10.461Z,54.30
2022-08-04T10:09:05.024Z,53.90
2022-08-04T10:12:05.156Z,53.50
2022-08-04T10:14:58.653Z,53.70
2022-08-04T10:18:14.598Z,53.80
2022-08-04T10:21:10.168Z,53.50
2022-08-04T10:24:40.447Z,53.20
2022-08-04T10:28:10.664Z,52.50
2022-08-04T10:31:00.824Z,52.70
2022-08-04T10:34:23.961Z,52.80
2022-08-04T10:37:59.118Z,52.20
2022-08-04T10:40:56.313Z,51.50
2022-08-04T10:44:03.530Z,50.70
2022-08-04T10:47:00.838Z,50.30
2022-08-04T10:49:54.474Z,50.50
2022-08-04T10:52:55.209Z,50.20
2022-08-04T10:56:06.952Z,50.00
2022-08-04T10:59:06.885Z,49.80
2022-08-04T11:02:03.541Z,50.00
2022-08-04T11:05:01.806Z,49.20
2022-08-04T11:07:51.439Z,48.50
2022-08-04T11:10:47.339Z,48.90
2022-08-04T11:14:01.501Z,48.70
2022-08-04T11:16:57.664Z,48.90
2022-08-04T11:20:33.063Z,49.30
2022-08-04T11:23:14.353Z,48.70
2022-08-04T11:26:15.583Z,48.90
2022-08-04T11:29:15.264Z,48.20
2022-08-04T11:32:03.958Z,47.70
2022-08-04T11:34:55.106Z,48.20
2022-08-04T11:37:50.492Z,48.90
2022-08-04T11:41:02.293Z,49.60
2022-08-04T11:44:03.175Z,50.00
2022-08-04T11:46:54.501Z,50.30
2022-08-04T11:50:05.928Z,50.80
2022-08-04T11:52:55.011Z,51.10
2022-08-04T11:56:07.909Z,51.10
2022-08-04T11:58:50.487Z,51.40
2022-08-04T12:02:00.987Z,51.80
2022-08-04T12:05:02.323Z,52.50
2022-08-04T12:08:00.173Z,52.30
2022-08-04T12:10:51.443Z,52.40
2022-08-04T12:14:03.880Z,52.50
2022-08-04T12:17:01.532Z,52.80
2022-08-04T12:20:31.365Z,53.20
2022-08-04T12:23:31.017Z,53.00
2022-08-04T12:26:26.519Z,53.60
2022-08-04T12:29:16.403Z,53.00
2022-08-04T12:32:26.662Z,53.30
2022-08-04T12:35:26.058Z,53.00
2022-08-04T12:38:14.448Z,53.20
2022-08-04T12:41:04.790Z,53.60
2022-08-04T12:43:51.038Z,53.50
2022-08-04T12:46:37.964Z,53.60
2022-08-04T12:49:24.166Z,53.80
2022-08-04T12:52:11.320Z,54.20
2022-08-04T12:54:59.002Z,54.70
2022-08-04T12:57:46.895Z,54.90
2022-08-04T13:00:41.882Z,55.00
2022-08-04T13:03:44.173Z,55.20
2022-08-04T13:06:33.807Z,55.50
2022-08-04T13:09:22.669Z,55.50
2022-08-04T13:12:32.749Z,55.90
2022-08-04T13:15:22.371Z,55.70
2022-08-04T13:18:15.015Z,56.00
2022-08-04T13:21:22.863Z,56.00
2022-08-04T13:24:21.986Z,55.10
2022-08-04T13:27:17.852Z,54.50
2022-08-04T13:30:04.217Z,53.80
2022-08-04T13:32:57.692Z,53.20
2022-08-04T13:35:55.201Z,52.90
2022-08-04T13:39:07.869Z,53.30
2022-08-04T13:41:59.177Z,53.10
2022-08-04T13:44:49.090Z,52.50
2022-08-04T13:47:38.362Z,51.70
2022-08-04T13:50:27.647Z,51.00
2022-08-04T13:53:13.494Z,51.00
2022-08-04T13:56:01.575Z,50.60
2022-08-04T13:58:48.844Z,50.20
2022-08-04T14:01:36.436Z,50.10
2022-08-04T14:04:25.899Z,50.00
2022-08-04T14:07:20.905Z,50.30
2022-08-04T14:10:11.820Z,49.60
2022-08-04T14:12:57.624Z,50.20
2022-08-04T14:16:01.823Z,49.90
2022-08-04T14:19:00.035Z,49.00
2022-08-04T14:21:45.460Z,49.50
2022-08-04T14:24:31.228Z,49.60
2022-08-04T14:27:16.819Z,49.50
2022-08-04T14:30:02.416Z,49.30
2022-08-04T14:34:04.644Z,49.10
2022-08-04T14:36:19.433Z,48.70
2022-08-04T14:39:08.391Z,48.80
2022-08-04T14:41:54.723Z,49.10
2022-08-04T14:44:55.222Z,49.40
2022-08-04T14:47:51.929Z,49.80
2022-08-04T14:50:46.942Z,50.20
2022-08-04T14:53:32.736Z,50.90
2022-08-04T14:56:44.885Z,50.10
2022-08-04T14:59:24.990Z,49.80
2022-08-04T15:02:11.849Z,49.70
2022-08-04T15:04:59.352Z,49.50
2022-08-04T15:08:05.473Z,49.20
2022-08-04T15:10:53.180Z,49.00
2022-08-04T15:13:38.604Z,48.80
2022-08-04T15:16:26.202Z,48.70
2022-08-04T15:19:11.744Z,48.80
2022-08-04T15:21:57.574Z,49.00
2022-08-04T15:24:43.146Z,48.90
2022-08-04T15:27:36.204Z,48.70
2022-08-04T15:30:22.559Z,48.60
2022-08-04T15:33:09.176Z,48.80
2022-08-04T15:36:22.507Z,48.50
2022-08-04T15:39:21.211Z,48.40
2022-08-04T15:42:18.901Z,48.80
2022-08-04T15:45:23.772Z,50.00
2022-08-04T15:48:29.538Z,51.20
2022-08-04T15:51:31.876Z,52.10
2022-08-04T15:54:27.488Z,53.20
2022-08-04T15:57:16.140Z,53.50
2022-08-04T16:00:14.281Z,54.20
2022-08-04T16:03:00.530Z,54.90
2022-08-04T16:05:46.266Z,55.30
2022-08-04T16:08:57.788Z,55.70
2022-08-04T16:11:43.854Z,56.40
2022-08-04T16:14:35.842Z,56.50
2022-08-04T16:17:21.396Z,56.70
2022-08-04T16:20:12.388Z,56.90
2022-08-04T16:23:07.160Z,56.70
2022-08-04T16:25:59.663Z,56.70
2022-08-04T16:28:45.138Z,56.60
2022-08-04T16:31:34.305Z,56.30
2022-08-04T16:34:53.815Z,55.20
2022-08-04T16:37:36.037Z,54.60
2022-08-04T16:40:39.016Z,53.80
2022-08-04T16:43:30.572Z,53.50
2022-08-04T16:47:21.489Z,53.50
2022-08-04T16:50:02.351Z,53.20
2022-08-04T16:52:56.791Z,53.30
2022-08-04T16:55:49.778Z,53.90
2022-08-04T16:58:36.743Z,54.20
2022-08-04T17:01:33.496Z,54.10
2022-08-04T17:04:32.159Z,54.00
2022-08-04T17:07:20.950Z,54.50
2022-08-04T17:10:07.099Z,54.80
2022-08-04T17:13:08.395Z,55.40
2022-08-04T17:16:10.450Z,55.70
2022-08-04T17:18:59.167Z,56.00
2022-08-04T17:21:45.128Z,56.30
2022-08-04T17:24:33.271Z,56.30
2022-08-04T17:28:19.135Z,56.30
2022-08-04T17:30:27.860Z,56.50
2022-08-04T17:33:15.455Z,57.00
2022-08-04T17:36:03.830Z,57.40
2022-08-04T17:38:54.764Z,56.90
2022-08-04T17:41:40.885Z,56.80
2022-08-04T17:44:38.765Z,56.30
2022-08-04T17:47:24.427Z,56.80
2022-08-04T17:50:11.649Z,56.60
2022-08-04T17:53:11.791Z,56.90
2022-08-04T17:56:00.106Z,57.20
2022-08-04T17:59:06.987Z,57.10
2022-08-04T18:01:52.568Z,57.30
2022-08-04T18:05:07.355Z,57.50
2022-08-04T18:08:39.724Z,57.70
2022-08-04T18:10:58.457Z,57.80
2022-08-04T18:13:52.267Z,57.90
2022-08-04T18:16:45.609Z,58.20
2022-08-04T18:19:31.321Z,58.30
2022-08-04T18:22:27.954Z,58.40
2022-08-04T18:25:15.671Z,59.10
2022-08-04T18:28:09.644Z,58.50
2022-08-04T18:30:59.738Z,58.50
2022-08-04T18:33:57.300Z,58.80
2022-08-04T18:36:55.590Z,59.20
2022-08-04T18:40:24.934Z,59.60
2022-08-04T18:42:50.566Z,59.80
2022-08-04T18:45:36.080Z,60.50
2022-08-04T18:48:22.537Z,60.70
2022-08-04T18:54:31.881Z,61.70
2022-08-04T18:57:59.418Z,62.20
2022-08-04T19:00:35.070Z,63.20
2022-08-04T19:03:23.056Z,63.20
2022-08-04T19:06:09.302Z,64.00
2022-08-04T19:08:56.943Z,64.00
2022-08-04T19:11:55.512Z,64.40
2022-08-04T19:14:41.411Z,64.80
2022-08-04T19:17:52.648Z,65.40
2022-08-04T19:20:39.492Z,65.50
2022-08-04T19:24:10.788Z,65.70
2022-08-04T19:26:33.113Z,66.10
2022-08-04T19:29:18.814Z,66.20
2022-08-04T19:32:04.198Z,66.60
2022-08-04T19:34:59.601Z,66.90
2022-08-04T19:37:58.596Z,67.20
2022-08-04T19:40:52.692Z,67.60
2022-08-04T19:43:38.937Z,68.60
2022-08-04T19:46:29.903Z,68.00
2022-08-04T19:50:04.858Z,68.00
2022-08-04T19:52:33.913Z,68.60
2022-08-04T19:55:37.502Z,68.70
2022-08-04T19:58:26.199Z,69.10
2022-08-04T20:01:14.407Z,69.50
2022-08-04T20:04:20.056Z,69.40
2022-08-04T20:07:08.728Z,69.50
2022-08-04T20:10:00.241Z,69.80
2022-08-04T20:12:55.680Z,70.20
2022-08-04T20:15:55.387Z,70.20
2022-08-04T20:18:55.517Z,70.70
2022-08-04T20:21:55.250Z,70.80
2022-08-04T20:24:49.178Z,71.10
2022-08-04T20:27:51.657Z,71.20
2022-08-04T20:30:47.703Z,71.40
2022-08-04T20:33:34.471Z,71.60
2022-08-04T20:36:23.111Z,71.50
2022-08-04T20:39:09.526Z,71.80
2022-08-04T20:41:55.373Z,71.90
2022-08-04T20:44:46.844Z,73.20
2022-08-04T20:47:35.881Z,72.70
2022-08-04T20:50:29.880Z,73.00
2022-08-04T20:53:17.195Z,73.40
2022-08-04T20:56:03.100Z,73.70
2022-08-04T20:58:48.672Z,73.40
2022-08-04T21:01:34.078Z,73.40
2022-08-04T21:04:48.467Z,73.70
2022-08-04T21:07:36.352Z,74.00
2022-08-04T21:10:30.362Z,74.10
2022-08-04T21:13:16.579Z,74.20
2022-08-04T21:16:04.349Z,74.50
2022-08-04T21:18:49.737Z,75.00
2022-08-04T21:21:35.813Z,75.20
2022-08-04T21:24:26.103Z,75.50
2022-08-04T21:27:12.761Z,75.80
2022-08-04T21:29:59.691Z,76.00
2022-08-04T21:32:48.673Z,76.00
2022-08-04T21:35:38.323Z,76.10
2022-08-04T21:38:28.091Z,76.10
2022-08-04T21:41:13.771Z,76.10
2022-08-04T21:44:12.995Z,76.50
2022-08-04T21:46:58.421Z,76.70
2022-08-04T21:49:56.995Z,76.80
2022-08-04T21:52:43.162Z,77.30
2022-08-04T21:56:04.529Z,76.60
2022-08-04T21:58:37.249Z,76.50
2022-08-04T22:01:49.902Z,77.20
2022-08-04T22:04:28.933Z,76.30
2022-08-04T22:07:23.044Z,77.20
2022-08-04T22:10:09.218Z,76.70
2022-08-04T22:12:54.956Z,76.90
2022-08-04T22:16:04.658Z,76.90
2022-08-04T22:18:50.135Z,77.10
2022-08-04T22:21:45.201Z,77.80
2022-08-04T22:24:31.459Z,77.20
2022-08-04T22:27:36.352Z,77.20
2022-08-04T22:30:23.858Z,77.40
2022-08-04T22:33:10.322Z,77.40
2022-08-04T22:35:57.886Z,77.40
2022-08-04T22:38:50.120Z,77.70
2022-08-04T22:41:48.837Z,77.90
2022-08-04T22:44:45.559Z,78.10
2022-08-04T22:47:30.776Z,78.20
2022-08-04T22:50:27.941Z,78.30
2022-08-04T22:53:17.713Z,78.30
2022-08-04T22:56:10.812Z,78.40
2022-08-04T22:58:56.804Z,78.50
2022-08-04T23:01:57.843Z,78.70
2022-08-04T23:04:45.624Z,78.90
2022-08-04T23:07:47.270Z,78.80
2022-08-04T23:10:36.900Z,79.20
2022-08-04T23:13:26.812Z,79.40
2022-08-04T23:16:13.113Z,79.20
2022-08-04T23:18:58.384Z,79.30
2022-08-04T23:21:47.398Z,79.40
2022-08-04T23:24:33.624Z,79.80
2022-08-04T23:27:19.762Z,80.20
2022-08-04T23:30:06.032Z,80.20
2022-08-04T23:32:54.879Z,80.00
2022-08-04T23:35:40.457Z,80.20
2022-08-04T23:38:30.953Z,80.70
2022-08-04T23:41:19.790Z,81.00
2022-08-04T23:44:05.924Z,80.80
2022-08-04T23:47:04.415Z,81.00
2022-08-04T23:49:50.341Z,80.80
2022-08-04T23:52:35.852Z,81.10
2022-08-04T23:55:21.470Z,81.30
2022-08-04T23:58:18.832Z,81.70
